LIRALICJ

Guest
Details From LIRA - Ciampino
To LICJ - Palermo
Flight Number -
Tags Generated
Created
Modified
Stats Distance 220 nm / 407 km
Max Altitude 0 ft / 0 m
Waypoints 3
Social Downloads 0
Likes 0
Share VATSIM

Download

Looking for another format? Having issues loading an existing format? Contact us
Advertisement - Login to hide

Notes

Generated

Route

LIRA PRS30 LICJ

ID Type Via Altitude Latitude Longitude Leg Dist Tot Dist Heading (true) Name
O LIRA APT - 0 ft / 0 m 41.80806˚ 12.58883˚ - 0 nm - -
PRS30 FIX - 0 ft / 0 m 38.22146˚ 13.09071˚ 216 nm 216 nm 174° / 174° -
O LICJ APT - 0 ft / 0 m 38.16614˚ 13.08562˚ 3 nm 219 nm 184° / 184° -

Altitude Profile

Advertisement - Login to hide

Weather


0- 5 10 15 20 25 30 35+ Temperature / ° C

Clouds and Precipitation
Forecast for 2017-12-19 00:00 UTC. Updated 2 hours ago

Ground ~20,000 ft ~40,000 ft Winds

LIRA

Details ICAO LIRA (CIA)
Name CIAMPINO
Region Italy
Timezone Europe/Rome (UTC+1.0)
Stats Elevation 427 ft / 130 m (AMSL)
Location 41.799228° 12.594917°
Runways 1
Magnetic Variation 3.059° E

METAR

LIRA 182220Z 06002KT CAVOK 01/M05 Q1024

Decode

TAF

TAF LIRA 181700Z 1818/1918 02006KT CAVOK

Decode

Departure Runways

ID Width Length Bearing (true) Bearing (mag) Surface Threshold Offset Overrun Length
15 154 ft / 47 m 7,246 ft / 2,209 m 152.79° 149.73° Asphalt 0 ft / 0 m 0 ft / 0 m
33 154 ft / 47 m 7,246 ft / 2,209 m 332.80° 329.74° Asphalt 0 ft / 0 m 0 ft / 0 m

LICJ

Details ICAO LICJ (PMO)
Name PALERMO
Region Italy
Timezone Europe/Rome (UTC+1.0)
Stats Elevation 65 ft / 20 m (AMSL)
Location 38.177377° 13.097035°
Runways 2
Magnetic Variation 2.951° E

METAR

LICJ 182220Z 03013KT 9999 SCT030 12/01 Q1023

Decode

TAF

TAF LICJ 181700Z 1818/1918 01012KT 9999 SCT030 BECMG 1818/1821 07012KT

Decode

Destination Runways

ID Width Length Bearing (true) Bearing (mag) Surface Threshold Offset Overrun Length
02 148 ft / 45 m 6,813 ft / 2,077 m 23.81° 20.86° Asphalt 10 ft / 3 m 0 ft / 0 m
07 197 ft / 60 m 10,685 ft / 3,257 m 66.82° 63.87° Asphalt 404 ft / 123 m 0 ft / 0 m
20 148 ft / 45 m 6,813 ft / 2,077 m 203.81° 200.86° Asphalt 10 ft / 3 m 0 ft / 0 m
25 197 ft / 60 m 10,685 ft / 3,257 m 246.85° 243.90° Asphalt 679 ft / 207 m 0 ft / 0 m

Approach Navaids

Runway Type Ident Frequency Range Bearing (true) Bearing (mag) Slope Elevation
20 Localiser ITO 110.55 MHz 18 nm / 33 km 203.81° 200.86° - 65 ft / 20 m (AMSL)
20 Glidescope ITO 110.55 MHz 10 nm / 19 km 203.81° 200.86° 3.00° 65 ft / 20 m (AMSL)
20 DME ITO 110.55 MHz 18 nm / 33 km - - - 38 ft / 12 m (AMSL)
25 Localiser RAI 109.50 MHz 18 nm / 33 km 246.82° 243.87° - 65 ft / 20 m (AMSL)
25 Glidescope RAI 109.50 MHz 10 nm / 19 km 246.84° 243.88° 3.00° 65 ft / 20 m (AMSL)
25 DME RAI 109.50 MHz 18 nm / 33 km - - - 65 ft / 20 m (AMSL)

Popular Alternatives